createdAt,value
2023-11-11T00:01:05.968Z,93.43
2023-11-11T00:03:32.995Z,93.85
2023-11-11T00:05:59.499Z,93.93
2023-11-11T00:08:25.913Z,94.18
2023-11-11T00:10:52.815Z,94.05
2023-11-11T00:13:20.935Z,94.29
2023-11-11T00:15:47.824Z,94.41
2023-11-11T00:18:17.473Z,94.70
2023-11-11T00:20:43.887Z,94.80
2023-11-11T00:23:10.323Z,94.64
2023-11-11T00:25:36.766Z,94.65
2023-11-11T00:28:03.362Z,95.66
2023-11-11T00:30:31.730Z,95.17
2023-11-11T00:32:58.212Z,94.55
2023-11-11T00:35:24.670Z,94.91
2023-11-11T00:37:51.077Z,94.58
2023-11-11T00:40:17.504Z,95.25
2023-11-11T00:42:44.009Z,95.04
2023-11-11T00:45:11.140Z,94.88
2023-11-11T00:47:37.663Z,95.31
2023-11-11T00:50:06.178Z,94.88
2023-11-11T00:52:35.097Z,95.32
2023-11-11T00:55:01.862Z,95.61
2023-11-11T00:57:28.350Z,95.33
2023-11-11T00:59:54.839Z,95.47
2023-11-11T01:02:21.289Z,95.25
2023-11-11T01:04:47.708Z,95.59
2023-11-11T01:07:14.723Z,95.21
2023-11-11T01:09:42.268Z,95.80
2023-11-11T01:12:09.121Z,95.86
2023-11-11T01:14:36.046Z,95.94
2023-11-11T01:17:05.959Z,96.12
2023-11-11T01:19:32.436Z,96.99
2023-11-11T01:21:58.922Z,96.62
2023-11-11T01:24:25.505Z,97.06
2023-11-11T01:26:52.256Z,97.25
2023-11-11T01:29:18.713Z,97.03
2023-11-11T01:31:45.219Z,96.66
2023-11-11T01:34:11.664Z,96.77
2023-11-11T01:36:38.090Z,97.06
2023-11-11T01:39:06.147Z,97.04
2023-11-11T01:41:32.705Z,96.94
2023-11-11T01:43:59.158Z,97.00
2023-11-11T01:46:26.200Z,97.21
2023-11-11T01:48:53.357Z,96.75
2023-11-11T01:51:21.258Z,96.50
2023-11-11T01:53:47.886Z,96.26
2023-11-11T01:56:14.611Z,96.56
2023-11-11T01:58:42.413Z,96.31
2023-11-11T02:01:09.044Z,96.54
2023-11-11T02:03:36.475Z,96.70
2023-11-11T02:06:03.695Z,96.33
2023-11-11T02:08:34.668Z,96.24
2023-11-11T02:11:06.145Z,96.68
2023-11-11T02:13:36.296Z,96.88
2023-11-11T02:16:07.006Z,96.62
2023-11-11T02:18:34.006Z,96.44
2023-11-11T02:21:00.690Z,96.75
2023-11-11T02:23:38.616Z,96.84
2023-11-11T02:26:06.168Z,96.75
2023-11-11T02:28:32.754Z,96.20
2023-11-11T02:30:59.266Z,96.20
2023-11-11T02:33:26.081Z,95.84
2023-11-11T02:35:52.947Z,96.12
2023-11-11T02:38:19.717Z,96.35
2023-11-11T02:40:46.125Z,96.22
2023-11-11T02:43:12.712Z,96.81
2023-11-11T02:45:39.339Z,96.53
2023-11-11T02:48:07.584Z,96.56
2023-11-11T02:50:34.256Z,96.62
2023-11-11T02:53:00.700Z,96.86
2023-11-11T02:55:27.116Z,96.51
2023-11-11T02:57:54.022Z,96.70
2023-11-11T03:00:22.332Z,96.63
2023-11-11T03:02:48.960Z,96.15
2023-11-11T03:05:15.399Z,96.04
2023-11-11T03:07:41.810Z,95.98
2023-11-11T03:10:10.948Z,95.50
2023-11-11T03:12:37.883Z,96.00
2023-11-11T03:15:04.753Z,96.46
2023-11-11T03:17:32.233Z,96.58
2023-11-11T03:20:04.054Z,96.46
2023-11-11T03:22:30.534Z,96.10
2023-11-11T03:24:57.478Z,96.47
2023-11-11T03:27:23.898Z,96.09
2023-11-11T03:29:50.406Z,95.93
2023-11-11T03:32:16.875Z,95.95
2023-11-11T03:34:43.341Z,96.25
2023-11-11T03:37:09.750Z,95.95
2023-11-11T03:39:36.244Z,95.90
2023-11-11T03:42:02.750Z,96.22
2023-11-11T03:44:29.185Z,96.56
2023-11-11T03:46:56.458Z,96.08
2023-11-11T03:49:22.951Z,95.52
2023-11-11T03:51:49.451Z,96.11
2023-11-11T03:54:15.870Z,96.59
2023-11-11T03:56:42.329Z,96.77
2023-11-11T03:59:08.759Z,96.73
2023-11-11T04:01:35.454Z,96.34
2023-11-11T04:04:02.303Z,96.16
2023-11-11T04:06:28.798Z,95.88
2023-11-11T04:08:55.255Z,95.90
2023-11-11T04:11:23.160Z,96.03
2023-11-11T04:13:50.440Z,95.70
2023-11-11T04:16:17.074Z,96.22
2023-11-11T04:18:43.660Z,95.91
2023-11-11T04:21:12.355Z,95.59
2023-11-11T04:23:41.320Z,95.79
2023-11-11T04:26:07.972Z,95.92
2023-11-11T04:28:34.703Z,95.68
2023-11-11T04:31:01.156Z,95.24
2023-11-11T04:33:29.785Z,95.00
2023-11-11T04:35:56.490Z,95.31
2023-11-11T04:38:25.803Z,95.51
2023-11-11T04:40:54.433Z,95.14
2023-11-11T04:43:20.863Z,95.85
2023-11-11T04:45:47.484Z,95.61
2023-11-11T04:48:14.038Z,96.00
2023-11-11T04:50:40.560Z,95.56
2023-11-11T04:53:08.307Z,95.29
2023-11-11T04:55:34.742Z,94.61
2023-11-11T04:58:01.332Z,94.90
2023-11-11T05:00:27.816Z,95.00
2023-11-11T05:02:54.345Z,94.82
2023-11-11T05:05:21.631Z,94.59
2023-11-11T05:07:48.054Z,94.88
2023-11-11T05:10:14.905Z,95.01
2023-11-11T05:12:42.157Z,95.45
2023-11-11T05:15:15.841Z,95.09
2023-11-11T05:17:44.467Z,94.79
2023-11-11T05:20:12.125Z,94.50
2023-11-11T05:22:38.767Z,94.71
2023-11-11T05:25:06.351Z,94.89
2023-11-11T05:27:32.880Z,94.65
2023-11-11T05:30:01.226Z,93.99
2023-11-11T05:32:27.987Z,94.65
2023-11-11T05:34:58.875Z,94.54
2023-11-11T05:37:26.111Z,94.29
2023-11-11T05:39:52.566Z,94.18
2023-11-11T05:42:19.092Z,93.90
2023-11-11T05:44:45.537Z,93.96
2023-11-11T05:47:15.470Z,93.88
2023-11-11T05:49:42.009Z,93.84
2023-11-11T05:52:08.771Z,93.86
2023-11-11T05:54:35.370Z,94.10
2023-11-11T05:57:01.861Z,93.83
2023-11-11T05:59:28.325Z,94.39
2023-11-11T06:01:55.777Z,94.23
2023-11-11T06:04:22.455Z,93.61
2023-11-11T06:06:50.856Z,93.63
2023-11-11T06:09:20.093Z,93.45
2023-11-11T06:11:48.444Z,93.06
2023-11-11T06:14:19.084Z,91.61
2023-11-11T06:16:46.965Z,91.65
2023-11-11T06:19:14.013Z,91.38
2023-11-11T06:21:40.532Z,90.97
2023-11-11T06:24:07.367Z,91.49
2023-11-11T06:26:33.769Z,91.56
2023-11-11T06:29:00.229Z,92.34
2023-11-11T06:31:27.777Z,92.28
2023-11-11T06:33:54.603Z,92.75
2023-11-11T06:36:21.193Z,92.72
2023-11-11T06:38:47.771Z,93.17
2023-11-11T06:41:14.194Z,93.09
2023-11-11T06:43:40.661Z,93.48
2023-11-11T06:46:08.048Z,93.42
2023-11-11T06:48:35.271Z,93.75
2023-11-11T06:51:01.746Z,93.52
2023-11-11T06:53:28.178Z,93.83
2023-11-11T06:55:54.765Z,93.46
2023-11-11T06:58:21.818Z,94.23
2023-11-11T07:00:48.334Z,94.06
2023-11-11T07:03:14.897Z,93.92
2023-11-11T07:05:41.434Z,93.76
2023-11-11T07:08:08.189Z,94.10
2023-11-11T07:10:38.835Z,94.23
2023-11-11T07:13:06.033Z,94.62
2023-11-11T07:15:32.608Z,94.61
2023-11-11T07:17:59.069Z,94.57
2023-11-11T07:20:25.970Z,94.79
2023-11-11T07:22:55.628Z,94.55
2023-11-11T07:25:25.103Z,95.26
2023-11-11T07:27:51.568Z,95.30
2023-11-11T07:30:18.093Z,94.78
2023-11-11T07:32:53.528Z,94.56
2023-11-11T07:35:26.375Z,95.14
2023-11-11T07:37:53.710Z,94.72
2023-11-11T07:40:20.166Z,95.15
2023-11-11T07:42:46.672Z,94.82
2023-11-11T07:45:13.123Z,95.10
2023-11-11T07:47:42.610Z,95.23
2023-11-11T07:50:10.630Z,94.69
2023-11-11T07:52:37.137Z,95.37
2023-11-11T07:55:03.900Z,95.37
2023-11-11T08:00:01.950Z,94.86
2023-11-11T08:02:34.225Z,94.17
2023-11-11T08:05:00.680Z,93.79
2023-11-11T08:07:27.069Z,94.38
2023-11-11T08:09:53.465Z,94.49
2023-11-11T08:12:20.118Z,93.84
2023-11-11T08:14:46.821Z,94.01
2023-11-11T08:17:13.366Z,93.74
2023-11-11T08:19:39.957Z,94.21
2023-11-11T08:22:06.399Z,94.36
2023-11-11T08:24:32.853Z,94.18
2023-11-11T08:26:59.414Z,93.81
2023-11-11T08:29:25.820Z,93.62
2023-11-11T08:31:52.275Z,93.26
2023-11-11T08:34:18.746Z,93.24
2023-11-11T08:36:50.776Z,93.47
2023-11-11T08:39:21.764Z,92.63
2023-11-11T08:41:48.242Z,92.65
2023-11-11T08:44:14.680Z,92.34
2023-11-11T08:46:42.048Z,92.72
2023-11-11T08:49:08.662Z,92.72
2023-11-11T08:51:35.351Z,92.66
2023-11-11T08:54:01.887Z,93.28
2023-11-11T08:56:31.122Z,92.73
2023-11-11T08:58:57.599Z,93.11
2023-11-11T09:01:24.103Z,92.95
2023-11-11T09:03:51.081Z,92.91
2023-11-11T09:06:18.330Z,92.74
2023-11-11T09:08:44.998Z,92.75
2023-11-11T09:11:12.486Z,93.10
2023-11-11T09:13:39.490Z,92.88
2023-11-11T09:16:06.594Z,92.72
2023-11-11T09:18:33.204Z,92.54
2023-11-11T09:21:00.801Z,93.00
2023-11-11T09:23:27.617Z,92.30
2023-11-11T09:25:55.153Z,92.05
2023-11-11T09:28:21.568Z,91.16
2023-11-11T09:30:48.022Z,91.99
2023-11-11T09:33:15.683Z,91.18
2023-11-11T09:35:43.505Z,91.47
2023-11-11T09:38:10.982Z,92.01
2023-11-11T09:40:37.396Z,91.49
2023-11-11T09:43:04.193Z,91.57
2023-11-11T09:45:30.708Z,91.92
2023-11-11T09:48:01.977Z,91.20
2023-11-11T09:50:28.737Z,91.33
2023-11-11T09:52:57.687Z,90.60
2023-11-11T09:55:25.059Z,91.20
2023-11-11T09:57:53.160Z,91.11
2023-11-11T10:00:20.320Z,90.25
2023-11-11T10:02:47.049Z,90.34
2023-11-11T10:05:13.941Z,90.71
2023-11-11T10:07:41.432Z,91.17
2023-11-11T10:10:13.210Z,91.00
2023-11-11T10:12:41.214Z,90.67
2023-11-11T10:15:09.296Z,91.05
2023-11-11T10:17:40.852Z,90.67
2023-11-11T10:20:15.292Z,90.21
2023-11-11T10:22:47.206Z,89.85
2023-11-11T10:25:18.396Z,89.74
2023-11-11T10:27:52.063Z,89.99
2023-11-11T10:30:20.306Z,89.45
2023-11-11T10:32:49.901Z,90.31
2023-11-11T10:35:18.067Z,89.75
2023-11-11T10:37:45.595Z,89.37
2023-11-11T10:40:14.095Z,89.39
2023-11-11T10:42:41.746Z,88.89
2023-11-11T10:45:08.702Z,88.98
2023-11-11T10:47:37.790Z,88.99
2023-11-11T10:50:05.156Z,88.23
2023-11-11T10:52:33.920Z,88.51
2023-11-11T10:55:00.688Z,89.26
2023-11-11T10:57:30.486Z,88.49
2023-11-11T10:59:57.148Z,88.46
2023-11-11T11:02:25.138Z,88.18
2023-11-11T11:04:56.163Z,87.49
2023-11-11T11:07:33.286Z,87.86
2023-11-11T11:10:10.312Z,87.61
2023-11-11T11:12:46.141Z,87.70
2023-11-11T11:15:14.742Z,87.23
2023-11-11T11:17:45.026Z,87.39
2023-11-11T11:20:21.518Z,87.83
2023-11-11T11:22:48.444Z,87.47
2023-11-11T11:25:49.223Z,87.72
2023-11-11T11:28:17.172Z,87.24
2023-11-11T11:30:50.360Z,86.99
2023-11-11T11:33:32.030Z,87.13
2023-11-11T11:36:05.641Z,86.05
2023-11-11T11:38:41.922Z,85.75
2023-11-11T11:41:13.673Z,85.05
2023-11-11T11:43:43.013Z,85.29
2023-11-11T11:46:10.445Z,85.60
2023-11-11T11:48:39.268Z,84.93
2023-11-11T11:51:09.850Z,84.58
2023-11-11T11:53:42.669Z,83.89
2023-11-11T11:56:15.519Z,83.30
2023-11-11T11:58:46.314Z,83.84
2023-11-11T12:01:21.588Z,82.74
2023-11-11T12:03:49.182Z,82.45
2023-11-11T12:06:16.017Z,82.89
2023-11-11T12:09:10.488Z,82.87
2023-11-11T12:11:38.156Z,82.24
2023-11-11T12:14:08.942Z,81.66
2023-11-11T12:16:45.608Z,81.47
2023-11-11T12:19:23.027Z,81.07
2023-11-11T12:21:51.573Z,83.54
2023-11-11T12:24:19.915Z,83.74
2023-11-11T12:26:49.662Z,83.59
2023-11-11T12:29:16.926Z,82.83
2023-11-11T12:31:51.127Z,83.88
2023-11-11T12:34:25.364Z,82.31
2023-11-11T12:36:53.395Z,82.45
2023-11-11T12:39:26.583Z,83.80
2023-11-11T12:41:55.568Z,84.22
2023-11-11T12:44:24.855Z,84.77
2023-11-11T12:46:52.995Z,85.25
2023-11-11T12:49:22.328Z,84.69
2023-11-11T12:51:48.829Z,84.96
2023-11-11T12:54:17.679Z,85.47
2023-11-11T12:56:52.177Z,85.40
2023-11-11T12:59:21.521Z,85.85
2023-11-11T13:01:50.054Z,85.64
2023-11-11T13:04:18.171Z,86.01
2023-11-11T13:06:45.464Z,85.52
2023-11-11T13:09:19.805Z,86.05
2023-11-11T13:11:48.830Z,86.57
2023-11-11T13:14:20.104Z,85.81
2023-11-11T13:16:51.114Z,86.19
2023-11-11T13:19:19.073Z,86.05
2023-11-11T13:21:49.094Z,86.17
2023-11-11T13:24:16.073Z,86.04
2023-11-11T13:26:42.963Z,86.59
2023-11-11T13:29:09.544Z,86.30
2023-11-11T13:31:36.373Z,86.56
2023-11-11T13:34:03.144Z,85.72
2023-11-11T13:36:30.330Z,85.52
2023-11-11T13:38:59.283Z,84.67
2023-11-11T13:41:34.816Z,84.33
2023-11-11T13:44:01.466Z,84.09
2023-11-11T13:46:31.081Z,83.62
2023-11-11T13:48:59.730Z,82.83
2023-11-11T13:51:26.450Z,83.28
2023-11-11T13:53:56.530Z,83.32
2023-11-11T13:56:24.226Z,83.79
2023-11-11T13:58:56.114Z,83.10
2023-11-11T14:01:24.578Z,83.64
2023-11-11T14:03:51.833Z,82.74
2023-11-11T14:06:19.192Z,82.92
2023-11-11T14:08:45.775Z,83.16
2023-11-11T14:11:12.239Z,83.57
2023-11-11T14:13:40.608Z,83.85
2023-11-11T14:16:08.422Z,83.46
2023-11-11T14:18:34.979Z,84.10
2023-11-11T14:21:02.002Z,83.50
2023-11-11T14:23:28.686Z,84.09
2023-11-11T14:25:58.168Z,84.33
2023-11-11T14:28:24.997Z,84.24
2023-11-11T14:30:52.032Z,83.97
2023-11-11T14:33:22.065Z,84.52
2023-11-11T14:35:48.648Z,83.82
2023-11-11T14:38:16.296Z,84.25
2023-11-11T14:40:43.136Z,83.99
2023-11-11T14:43:09.716Z,84.49
2023-11-11T14:45:36.502Z,84.39
2023-11-11T14:48:03.383Z,84.44
2023-11-11T14:50:29.866Z,84.27
2023-11-11T14:52:56.384Z,83.65
2023-11-11T14:55:25.241Z,83.30
2023-11-11T14:57:53.762Z,83.92
2023-11-11T15:00:21.919Z,83.61
2023-11-11T15:02:48.556Z,84.12
2023-11-11T15:05:17.841Z,83.09
2023-11-11T15:07:46.570Z,83.79
2023-11-11T15:10:21.376Z,83.68
2023-11-11T15:12:51.913Z,83.47
2023-11-11T15:15:18.845Z,82.46
2023-11-11T15:17:46.243Z,82.69
2023-11-11T15:20:18.611Z,82.31
2023-11-11T15:22:52.128Z,82.02
2023-11-11T15:25:20.880Z,81.96
2023-11-11T15:27:49.358Z,81.76
2023-11-11T15:30:19.870Z,81.37
2023-11-11T15:32:46.596Z,80.94
2023-11-11T15:35:13.935Z,81.23
2023-11-11T15:37:40.529Z,81.18
2023-11-11T15:40:09.505Z,81.06
2023-11-11T15:42:39.882Z,80.51
2023-11-11T15:45:09.591Z,80.88
2023-11-11T15:47:36.772Z,80.96
2023-11-11T15:50:06.869Z,81.30
2023-11-11T15:52:33.446Z,80.74
2023-11-11T15:54:59.942Z,80.81
2023-11-11T15:57:26.402Z,81.21
2023-11-11T15:59:52.812Z,80.85
2023-11-11T16:02:19.550Z,80.83
2023-11-11T16:04:46.388Z,80.92
2023-11-11T16:07:12.949Z,80.73
2023-11-11T16:09:39.416Z,81.03
2023-11-11T16:12:08.197Z,81.03
2023-11-11T16:14:36.122Z,81.05
2023-11-11T16:17:02.607Z,83.29
2023-11-11T16:19:29.119Z,84.40
2023-11-11T16:21:55.673Z,85.38
2023-11-11T16:24:27.280Z,83.99
2023-11-11T16:26:55.122Z,84.84
2023-11-11T16:29:21.748Z,85.75
2023-11-11T16:31:48.144Z,86.17
2023-11-11T16:34:20.357Z,86.49
2023-11-11T16:36:46.831Z,86.29
2023-11-11T16:39:16.603Z,86.68
2023-11-11T16:41:47.958Z,87.17
2023-11-11T16:44:14.418Z,86.99
2023-11-11T16:46:41.407Z,86.36
2023-11-11T16:49:07.853Z,86.51
2023-11-11T16:51:34.291Z,86.85
2023-11-11T16:54:00.696Z,86.21
2023-11-11T16:56:27.089Z,86.25
2023-11-11T16:58:53.921Z,86.14
2023-11-11T17:01:20.447Z,85.88
2023-11-11T17:03:46.947Z,85.85
2023-11-11T17:06:13.489Z,85.96
2023-11-11T17:08:40.568Z,85.47
2023-11-11T17:11:09.610Z,85.65
2023-11-11T17:13:39.117Z,84.99
2023-11-11T17:16:06.133Z,84.50
2023-11-11T17:18:32.629Z,84.35
2023-11-11T17:20:59.030Z,84.23
2023-11-11T17:23:25.400Z,83.95
2023-11-11T17:25:51.761Z,84.58
2023-11-11T17:28:18.299Z,84.51
2023-11-11T17:30:45.447Z,84.45
2023-11-11T17:33:26.010Z,84.73
2023-11-11T17:35:59.199Z,84.69
2023-11-11T17:38:25.575Z,84.78
2023-11-11T17:40:51.940Z,85.00
2023-11-11T17:43:18.344Z,85.17
2023-11-11T17:45:44.754Z,84.28
2023-11-11T17:48:11.210Z,84.58
2023-11-11T17:50:37.724Z,85.40
2023-11-11T17:53:16.088Z,85.44
2023-11-11T17:55:45.072Z,85.25
2023-11-11T17:58:11.486Z,86.17
2023-11-11T18:00:37.894Z,85.25
2023-11-11T18:03:04.582Z,85.03
2023-11-11T18:05:34.585Z,85.21
2023-11-11T18:08:02.745Z,85.74
2023-11-11T18:10:29.619Z,86.11
2023-11-11T18:12:56.121Z,86.12
2023-11-11T18:15:22.507Z,85.96
2023-11-11T18:17:50.110Z,86.23
2023-11-11T18:20:16.656Z,85.69
2023-11-11T18:22:43.180Z,85.89
2023-11-11T18:25:11.153Z,86.28
2023-11-11T18:27:38.626Z,86.18
2023-11-11T18:30:06.966Z,85.76
2023-11-11T18:32:33.554Z,86.02
2023-11-11T18:35:01.315Z,86.24
2023-11-11T18:37:27.816Z,86.41
2023-11-11T18:39:54.569Z,86.31
2023-11-11T18:42:21.064Z,86.65
2023-11-11T18:44:47.529Z,86.64
2023-11-11T18:47:14.059Z,86.85
2023-11-11T18:49:40.506Z,86.81
2023-11-11T18:52:07.190Z,86.89
2023-11-11T18:54:33.724Z,87.11
2023-11-11T18:57:00.247Z,87.61
2023-11-11T18:59:26.757Z,87.07
2023-11-11T19:01:53.334Z,87.72
2023-11-11T19:04:19.843Z,87.49
2023-11-11T19:06:46.233Z,87.87
2023-11-11T19:09:12.661Z,88.19
2023-11-11T19:11:44.775Z,88.17
2023-11-11T19:14:12.647Z,88.32
2023-11-11T19:16:41.263Z,88.71
2023-11-11T19:19:07.789Z,88.68
2023-11-11T19:21:38.382Z,88.66
2023-11-11T19:24:09.954Z,88.33
2023-11-11T19:26:37.086Z,89.21
2023-11-11T19:29:03.817Z,88.61
2023-11-11T19:31:31.031Z,88.84
2023-11-11T19:33:57.613Z,89.26
2023-11-11T19:36:24.463Z,89.40
2023-11-11T19:38:51.008Z,89.44
2023-11-11T19:41:17.562Z,89.14
2023-11-11T19:43:46.975Z,89.54
2023-11-11T19:46:17.732Z,89.62
2023-11-11T19:48:45.637Z,89.57
2023-11-11T19:51:26.863Z,90.01
2023-11-11T19:53:55.390Z,90.27
2023-11-11T19:56:22.862Z,90.23
2023-11-11T19:58:49.857Z,89.96
2023-11-11T20:01:16.361Z,90.16
2023-11-11T20:03:42.994Z,90.09
2023-11-11T20:06:09.925Z,89.98
2023-11-11T20:08:36.494Z,89.88
2023-11-11T20:11:03.413Z,90.25
2023-11-11T20:13:29.916Z,90.30
2023-11-11T20:15:57.182Z,90.53
2023-11-11T20:18:23.615Z,90.21
2023-11-11T20:20:50.142Z,90.38
2023-11-11T20:23:16.528Z,90.40
2023-11-11T20:25:43.071Z,90.45
2023-11-11T20:28:09.620Z,90.22
2023-11-11T20:30:38.958Z,90.84
2023-11-11T20:33:10.585Z,90.15
2023-11-11T20:35:39.640Z,90.11
2023-11-11T20:38:06.757Z,90.24
2023-11-11T20:40:33.616Z,90.66
2023-11-11T20:43:00.099Z,90.84
2023-11-11T20:45:26.576Z,90.80
2023-11-11T20:47:53.077Z,90.78
2023-11-11T20:50:20.093Z,91.18
2023-11-11T20:52:48.952Z,91.40
2023-11-11T20:55:18.134Z,91.33
2023-11-11T20:57:44.835Z,91.47
2023-11-11T21:00:13.066Z,91.13
2023-11-11T21:02:42.992Z,91.41
2023-11-11T21:05:14.953Z,90.78
2023-11-11T21:07:43.270Z,91.50
2023-11-11T21:10:10.680Z,91.25
2023-11-11T21:12:37.086Z,91.08
2023-11-11T21:15:03.897Z,91.51
2023-11-11T21:17:31.224Z,91.61
2023-11-11T21:19:58.132Z,91.36
2023-11-11T21:22:24.735Z,91.47
2023-11-11T21:24:51.107Z,91.20
2023-11-11T21:27:17.504Z,91.12
2023-11-11T21:29:45.749Z,91.63
2023-11-11T21:32:14.306Z,91.42
2023-11-11T21:34:41.795Z,91.02
2023-11-11T21:37:09.297Z,91.15
2023-11-11T21:39:35.887Z,91.10
2023-11-11T21:42:02.360Z,91.58
2023-11-11T21:44:28.779Z,91.60
2023-11-11T21:46:55.421Z,91.39
2023-11-11T21:49:25.493Z,91.79
2023-11-11T21:51:52.181Z,91.82
2023-11-11T21:54:18.632Z,91.82
2023-11-11T21:56:45.141Z,91.55
2023-11-11T21:59:12.093Z,91.98
2023-11-11T22:01:43.228Z,91.74
2023-11-11T22:04:10.529Z,91.30
2023-11-11T22:06:37.691Z,91.75
2023-11-11T22:09:06.298Z,91.38
2023-11-11T22:11:34.132Z,91.59
2023-11-11T22:14:00.720Z,91.85
2023-11-11T22:16:27.214Z,91.63
2023-11-11T22:18:54.438Z,91.46
2023-11-11T22:21:20.899Z,91.59
2023-11-11T22:23:47.274Z,91.65
2023-11-11T22:26:18.232Z,90.56
2023-11-11T22:28:46.040Z,91.38
2023-11-11T22:31:12.863Z,91.10
2023-11-11T22:33:39.586Z,91.12
2023-11-11T22:36:08.545Z,90.65
2023-11-11T22:38:35.026Z,90.18
2023-11-11T22:41:01.439Z,90.73
2023-11-11T22:43:27.868Z,90.36
2023-11-11T22:45:54.276Z,90.86
2023-11-11T22:48:20.704Z,90.75
2023-11-11T22:50:47.144Z,91.05
2023-11-11T22:53:13.610Z,91.03
2023-11-11T22:55:40.084Z,90.48
2023-11-11T22:58:07.009Z,90.58
2023-11-11T23:00:33.448Z,90.23
2023-11-11T23:03:06.850Z,90.04
2023-11-11T23:05:35.034Z,89.96
2023-11-11T23:08:03.472Z,90.02
2023-11-11T23:10:31.761Z,89.96
2023-11-11T23:12:59.699Z,89.99
2023-11-11T23:15:27.113Z,90.12
2023-11-11T23:17:53.760Z,90.29
2023-11-11T23:20:20.345Z,89.73
2023-11-11T23:22:47.022Z,89.56
2023-11-11T23:25:14.072Z,89.56
2023-11-11T23:27:44.295Z,89.68
2023-11-11T23:30:11.296Z,89.40
2023-11-11T23:32:38.784Z,89.30
2023-11-11T23:35:05.874Z,89.19
2023-11-11T23:37:32.322Z,89.20
2023-11-11T23:39:58.733Z,89.17
2023-11-11T23:42:25.187Z,89.31
2023-11-11T23:44:51.766Z,89.00
2023-11-11T23:47:19.000Z,89.32
2023-11-11T23:49:45.492Z,89.36
2023-11-11T23:52:12.540Z,89.12
2023-11-11T23:54:39.002Z,89.60
2023-11-11T23:57:06.068Z,89.00
2023-11-11T23:59:32.562Z,89.01
